sensor_id;sensor_type;location;lat;lon;timestamp;P1;durP1;ratioP1;P2;durP2;ratioP2
35028;SDS011;35394;54.282;10.070;2023-06-19T00:00:27;4.00;;;3.60;;
35028;SDS011;35394;54.282;10.070;2023-06-19T00:01:00;4.15;;;3.75;;
35028;SDS011;35394;54.282;10.070;2023-06-19T00:01:30;4.85;;;4.05;;
35028;SDS011;35394;54.282;10.070;2023-06-19T00:02:01;4.13;;;3.50;;
35028;SDS011;35394;54.282;10.070;2023-06-19T00:02:32;4.47;;;3.80;;
35028;SDS011;35394;54.282;10.070;2023-06-19T00:03:03;4.05;;;3.33;;
35028;SDS011;35394;54.282;10.070;2023-06-19T00:03:33;4.18;;;3.70;;
35028;SDS011;35394;54.282;10.070;2023-06-19T00:04:04;4.63;;;3.77;;
35028;SDS011;35394;54.282;10.070;2023-06-19T00:04:35;4.55;;;3.90;;
35028;SDS011;35394;54.282;10.070;2023-06-19T00:05:06;4.20;;;3.60;;
35028;SDS011;35394;54.282;10.070;2023-06-19T00:05:37;3.88;;;3.38;;
35028;SDS011;35394;54.282;10.070;2023-06-19T00:06:08;4.03;;;3.45;;
35028;SDS011;35394;54.282;10.070;2023-06-19T00:06:39;4.18;;;3.58;;
35028;SDS011;35394;54.282;10.070;2023-06-19T00:07:09;4.43;;;3.90;;
35028;SDS011;35394;54.282;10.070;2023-06-19T00:07:40;3.92;;;3.50;;
35028;SDS011;35394;54.282;10.070;2023-06-19T00:08:11;4.27;;;3.80;;
35028;SDS011;35394;54.282;10.070;2023-06-19T00:08:41;4.55;;;3.78;;
35028;SDS011;35394;54.282;10.070;2023-06-19T00:09:12;4.20;;;3.80;;
35028;SDS011;35394;54.282;10.070;2023-06-19T00:09:43;4.20;;;3.80;;
35028;SDS011;35394;54.282;10.070;2023-06-19T00:10:13;4.20;;;3.60;;
35028;SDS011;35394;54.282;10.070;2023-06-19T00:10:44;4.03;;;3.53;;
35028;SDS011;35394;54.282;10.070;2023-06-19T00:11:15;3.93;;;3.53;;
35028;SDS011;35394;54.282;10.070;2023-06-19T00:11:45;3.83;;;3.40;;
35028;SDS011;35394;54.282;10.070;2023-06-19T00:12:16;4.00;;;3.60;;
35028;SDS011;35394;54.282;10.070;2023-06-19T00:12:47;4.80;;;3.70;;
35028;SDS011;35394;54.282;10.070;2023-06-19T00:13:17;3.90;;;3.50;;
35028;SDS011;35394;54.282;10.070;2023-06-19T00:13:49;4.05;;;3.63;;
35028;SDS011;35394;54.282;10.070;2023-06-19T00:14:20;4.45;;;3.78;;
35028;SDS011;35394;54.282;10.070;2023-06-19T00:14:50;3.90;;;3.50;;
35028;SDS011;35394;54.282;10.070;2023-06-19T00:15:21;4.30;;;3.60;;
35028;SDS011;35394;54.282;10.070;2023-06-19T00:15:51;4.68;;;3.78;;
35028;SDS011;35394;54.282;10.070;2023-06-19T00:16:22;4.73;;;3.80;;
35028;SDS011;35394;54.282;10.070;2023-06-19T00:16:55;4.30;;;3.80;;
35028;SDS011;35394;54.282;10.070;2023-06-19T00:17:26;4.07;;;3.63;;
35028;SDS011;35394;54.282;10.070;2023-06-19T00:17:57;4.20;;;3.60;;
35028;SDS011;35394;54.282;10.070;2023-06-19T00:18:29;4.00;;;3.60;;
35028;SDS011;35394;54.282;10.070;2023-06-19T00:19:00;4.30;;;3.70;;
35028;SDS011;35394;54.282;10.070;2023-06-19T00:19:33;4.25;;;3.70;;
35028;SDS011;35394;54.282;10.070;2023-06-19T00:20:07;4.53;;;3.72;;
35028;SDS011;35394;54.282;10.070;2023-06-19T00:20:37;4.32;;;3.72;;
35028;SDS011;35394;54.282;10.070;2023-06-19T00:21:09;4.45;;;3.58;;
35028;SDS011;35394;54.282;10.070;2023-06-19T00:21:40;4.40;;;3.70;;
35028;SDS011;35394;54.282;10.070;2023-06-19T00:22:12;4.40;;;3.70;;
35028;SDS011;35394;54.282;10.070;2023-06-19T00:22:43;4.13;;;3.63;;
35028;SDS011;35394;54.282;10.070;2023-06-19T00:23:14;4.53;;;3.60;;
35028;SDS011;35394;54.282;10.070;2023-06-19T00:23:46;4.35;;;3.70;;
35028;SDS011;35394;54.282;10.070;2023-06-19T00:24:17;4.40;;;3.80;;
35028;SDS011;35394;54.282;10.070;2023-06-19T00:24:47;4.13;;;3.60;;
35028;SDS011;35394;54.282;10.070;2023-06-19T00:25:18;4.27;;;3.67;;
35028;SDS011;35394;54.282;10.070;2023-06-19T00:25:50;4.05;;;3.40;;
35028;SDS011;35394;54.282;10.070;2023-06-19T00:26:20;4.43;;;3.47;;
35028;SDS011;35394;54.282;10.070;2023-06-19T00:26:55;4.07;;;3.47;;
35028;SDS011;35394;54.282;10.070;2023-06-19T00:27:25;4.73;;;3.50;;
35028;SDS011;35394;54.282;10.070;2023-06-19T00:27:56;3.90;;;3.40;;
35028;SDS011;35394;54.282;10.070;2023-06-19T00:28:27;4.38;;;3.72;;
35028;SDS011;35394;54.282;10.070;2023-06-19T00:28:59;3.70;;;3.30;;
35028;SDS011;35394;54.282;10.070;2023-06-19T00:29:29;4.10;;;3.35;;
35028;SDS011;35394;54.282;10.070;2023-06-19T00:30:00;4.10;;;3.55;;
35028;SDS011;35394;54.282;10.070;2023-06-19T00:30:32;4.55;;;3.80;;
35028;SDS011;35394;54.282;10.070;2023-06-19T00:31:02;4.18;;;3.70;;
35028;SDS011;35394;54.282;10.070;2023-06-19T00:31:36;4.05;;;3.50;;
35028;SDS011;35394;54.282;10.070;2023-06-19T00:32:08;4.40;;;3.78;;
35028;SDS011;35394;54.282;10.070;2023-06-19T00:32:39;4.22;;;3.55;;
35028;SDS011;35394;54.282;10.070;2023-06-19T00:33:19;4.47;;;3.70;;
35028;SDS011;35394;54.282;10.070;2023-06-19T00:33:50;4.00;;;3.47;;
35028;SDS011;35394;54.282;10.070;2023-06-19T00:34:21;4.18;;;3.58;;
35028;SDS011;35394;54.282;10.070;2023-06-19T00:34:54;4.07;;;3.67;;
35028;SDS011;35394;54.282;10.070;2023-06-19T00:35:24;4.38;;;3.63;;
35028;SDS011;35394;54.282;10.070;2023-06-19T00:35:57;4.30;;;3.58;;
35028;SDS011;35394;54.282;10.070;2023-06-19T00:36:28;4.53;;;3.90;;
35028;SDS011;35394;54.282;10.070;2023-06-19T00:36:59;4.00;;;3.60;;
35028;SDS011;35394;54.282;10.070;2023-06-19T00:37:29;4.30;;;3.60;;
35028;SDS011;35394;54.282;10.070;2023-06-19T00:38:02;4.40;;;3.70;;
35028;SDS011;35394;54.282;10.070;2023-06-19T00:38:33;4.35;;;3.63;;
35028;SDS011;35394;54.282;10.070;2023-06-19T00:39:03;4.53;;;3.83;;
35028;SDS011;35394;54.282;10.070;2023-06-19T00:39:34;4.60;;;3.70;;
35028;SDS011;35394;54.282;10.070;2023-06-19T00:40:06;4.27;;;3.70;;
35028;SDS011;35394;54.282;10.070;2023-06-19T00:40:38;4.10;;;3.60;;
35028;SDS011;35394;54.282;10.070;2023-06-19T00:41:08;4.37;;;3.70;;
35028;SDS011;35394;54.282;10.070;2023-06-19T00:41:39;4.45;;;3.90;;
35028;SDS011;35394;54.282;10.070;2023-06-19T00:42:11;3.75;;;3.35;;
35028;SDS011;35394;54.282;10.070;2023-06-19T00:42:41;4.40;;;3.50;;
35028;SDS011;35394;54.282;10.070;2023-06-19T00:43:12;4.00;;;3.50;;
35028;SDS011;35394;54.282;10.070;2023-06-19T00:43:43;4.65;;;3.80;;
35028;SDS011;35394;54.282;10.070;2023-06-19T00:44:14;4.07;;;3.50;;
35028;SDS011;35394;54.282;10.070;2023-06-19T00:44:45;4.30;;;3.50;;
35028;SDS011;35394;54.282;10.070;2023-06-19T00:45:15;4.10;;;3.60;;
35028;SDS011;35394;54.282;10.070;2023-06-19T00:45:46;4.30;;;3.60;;
35028;SDS011;35394;54.282;10.070;2023-06-19T00:46:17;4.00;;;3.40;;
35028;SDS011;35394;54.282;10.070;2023-06-19T00:46:49;3.90;;;3.30;;
35028;SDS011;35394;54.282;10.070;2023-06-19T00:47:21;3.97;;;3.38;;
35028;SDS011;35394;54.282;10.070;2023-06-19T00:47:55;4.13;;;3.50;;
35028;SDS011;35394;54.282;10.070;2023-06-19T00:48:27;4.53;;;3.83;;
35028;SDS011;35394;54.282;10.070;2023-06-19T00:48:58;3.92;;;3.50;;
35028;SDS011;35394;54.282;10.070;2023-06-19T00:49:30;4.47;;;3.73;;
35028;SDS011;35394;54.282;10.070;2023-06-19T00:50:01;4.30;;;3.78;;
35028;SDS011;35394;54.282;10.070;2023-06-19T00:50:31;4.27;;;3.67;;
35028;SDS011;35394;54.282;10.070;2023-06-19T00:51:02;4.60;;;3.47;;
35028;SDS011;35394;54.282;10.070;2023-06-19T00:51:33;4.43;;;3.70;;
35028;SDS011;35394;54.282;10.070;2023-06-19T00:52:04;4.07;;;3.65;;
35028;SDS011;35394;54.282;10.070;2023-06-19T00:52:35;4.15;;;3.60;;
35028;SDS011;35394;54.282;10.070;2023-06-19T00:53:05;4.10;;;3.60;;
35028;SDS011;35394;54.282;10.070;2023-06-19T00:53:37;4.03;;;3.50;;
35028;SDS011;35394;54.282;10.070;2023-06-19T00:54:08;4.28;;;3.78;;
35028;SDS011;35394;54.282;10.070;2023-06-19T00:54:39;3.90;;;3.33;;
35028;SDS011;35394;54.282;10.070;2023-06-19T00:55:09;4.35;;;3.47;;
35028;SDS011;35394;54.282;10.070;2023-06-19T00:55:40;4.07;;;3.50;;
35028;SDS011;35394;54.282;10.070;2023-06-19T00:56:13;3.97;;;3.55;;
35028;SDS011;35394;54.282;10.070;2023-06-19T00:56:45;3.95;;;3.45;;
35028;SDS011;35394;54.282;10.070;2023-06-19T00:57:16;4.17;;;3.40;;
35028;SDS011;35394;54.282;10.070;2023-06-19T00:57:46;4.00;;;3.38;;
35028;SDS011;35394;54.282;10.070;2023-06-19T00:58:21;3.80;;;3.38;;
35028;SDS011;35394;54.282;10.070;2023-06-19T00:58:52;3.80;;;3.38;;
35028;SDS011;35394;54.282;10.070;2023-06-19T00:59:23;3.80;;;3.35;;
35028;SDS011;35394;54.282;10.070;2023-06-19T00:59:54;4.13;;;3.47;;
35028;SDS011;35394;54.282;10.070;2023-06-19T01:00:24;4.00;;;3.50;;
35028;SDS011;35394;54.282;10.070;2023-06-19T01:00:55;3.83;;;3.42;;
35028;SDS011;35394;54.282;10.070;2023-06-19T01:01:27;4.00;;;3.58;;
35028;SDS011;35394;54.282;10.070;2023-06-19T01:01:58;4.20;;;3.53;;
35028;SDS011;35394;54.282;10.070;2023-06-19T01:02:28;4.27;;;3.47;;
35028;SDS011;35394;54.282;10.070;2023-06-19T01:02:59;3.75;;;3.20;;
35028;SDS011;35394;54.282;10.070;2023-06-19T01:03:30;4.20;;;3.53;;
35028;SDS011;35394;54.282;10.070;2023-06-19T01:04:00;3.80;;;3.27;;
35028;SDS011;35394;54.282;10.070;2023-06-19T01:04:31;4.55;;;3.58;;
35028;SDS011;35394;54.282;10.070;2023-06-19T01:05:02;4.30;;;3.50;;
35028;SDS011;35394;54.282;10.070;2023-06-19T01:05:33;4.00;;;3.40;;
35028;SDS011;35394;54.282;10.070;2023-06-19T01:06:05;4.30;;;3.60;;
35028;SDS011;35394;54.282;10.070;2023-06-19T01:06:50;4.10;;;3.60;;
35028;SDS011;35394;54.282;10.070;2023-06-19T01:07:30;4.18;;;3.55;;
35028;SDS011;35394;54.282;10.070;2023-06-19T01:09:13;3.90;;;3.45;;
35028;SDS011;35394;54.282;10.070;2023-06-19T01:09:48;3.78;;;3.33;;
35028;SDS011;35394;54.282;10.070;2023-06-19T01:10:22;3.92;;;3.33;;
35028;SDS011;35394;54.282;10.070;2023-06-19T01:10:56;4.20;;;3.50;;
35028;SDS011;35394;54.282;10.070;2023-06-19T01:11:31;4.80;;;3.70;;
35028;SDS011;35394;54.282;10.070;2023-06-19T01:12:10;3.75;;;3.35;;
35028;SDS011;35394;54.282;10.070;2023-06-19T01:12:55;3.70;;;3.28;;
35028;SDS011;35394;54.282;10.070;2023-06-19T01:13:28;4.10;;;3.38;;
35028;SDS011;35394;54.282;10.070;2023-06-19T01:14:08;4.10;;;3.42;;
35028;SDS011;35394;54.282;10.070;2023-06-19T01:14:47;3.70;;;3.30;;
35028;SDS011;35394;54.282;10.070;2023-06-19T01:15:25;3.97;;;3.38;;
35028;SDS011;35394;54.282;10.070;2023-06-19T01:15:57;3.85;;;3.30;;
35028;SDS011;35394;54.282;10.070;2023-06-19T01:16:29;4.15;;;3.10;;
35028;SDS011;35394;54.282;10.070;2023-06-19T01:17:00;3.50;;;3.20;;
35028;SDS011;35394;54.282;10.070;2023-06-19T01:17:31;3.90;;;3.30;;
35028;SDS011;35394;54.282;10.070;2023-06-19T01:18:02;3.90;;;3.20;;
35028;SDS011;35394;54.282;10.070;2023-06-19T01:18:34;3.92;;;3.35;;
35028;SDS011;35394;54.282;10.070;2023-06-19T01:19:05;4.03;;;3.45;;
35028;SDS011;35394;54.282;10.070;2023-06-19T01:19:40;4.57;;;3.40;;
35028;SDS011;35394;54.282;10.070;2023-06-19T01:20:11;4.07;;;3.60;;
35028;SDS011;35394;54.282;10.070;2023-06-19T01:20:42;4.00;;;3.35;;
35028;SDS011;35394;54.282;10.070;2023-06-19T01:21:14;3.88;;;3.30;;
35028;SDS011;35394;54.282;10.070;2023-06-19T01:21:46;3.78;;;3.15;;
35028;SDS011;35394;54.282;10.070;2023-06-19T01:22:57;3.88;;;3.20;;
35028;SDS011;35394;54.282;10.070;2023-06-19T01:23:36;4.07;;;3.28;;
35028;SDS011;35394;54.282;10.070;2023-06-19T01:24:07;3.70;;;3.20;;
35028;SDS011;35394;54.282;10.070;2023-06-19T01:24:37;3.92;;;3.50;;
35028;SDS011;35394;54.282;10.070;2023-06-19T01:25:08;3.90;;;3.30;;
35028;SDS011;35394;54.282;10.070;2023-06-19T01:25:39;3.88;;;3.38;;
35028;SDS011;35394;54.282;10.070;2023-06-19T01:26:10;3.97;;;3.57;;
35028;SDS011;35394;54.282;10.070;2023-06-19T01:26:41;3.90;;;3.50;;
35028;SDS011;35394;54.282;10.070;2023-06-19T01:27:15;3.90;;;3.33;;
35028;SDS011;35394;54.282;10.070;2023-06-19T01:27:46;4.18;;;3.53;;
35028;SDS011;35394;54.282;10.070;2023-06-19T01:28:17;4.65;;;3.53;;
35028;SDS011;35394;54.282;10.070;2023-06-19T01:28:47;4.20;;;3.50;;
35028;SDS011;35394;54.282;10.070;2023-06-19T01:29:18;4.32;;;3.70;;
35028;SDS011;35394;54.282;10.070;2023-06-19T01:29:49;4.03;;;3.40;;
35028;SDS011;35394;54.282;10.070;2023-06-19T01:30:20;3.83;;;3.30;;
35028;SDS011;35394;54.282;10.070;2023-06-19T01:30:50;4.00;;;3.60;;
35028;SDS011;35394;54.282;10.070;2023-06-19T01:31:24;3.85;;;3.40;;
35028;SDS011;35394;54.282;10.070;2023-06-19T01:32:04;3.97;;;3.40;;
35028;SDS011;35394;54.282;10.070;2023-06-19T01:33:30;4.18;;;3.55;;
35028;SDS011;35394;54.282;10.070;2023-06-19T01:34:03;3.90;;;3.40;;
35028;SDS011;35394;54.282;10.070;2023-06-19T01:34:35;4.10;;;3.40;;
35028;SDS011;35394;54.282;10.070;2023-06-19T01:35:07;4.00;;;3.50;;
35028;SDS011;35394;54.282;10.070;2023-06-19T01:35:40;3.90;;;3.47;;
35028;SDS011;35394;54.282;10.070;2023-06-19T01:36:12;3.83;;;3.30;;
35028;SDS011;35394;54.282;10.070;2023-06-19T01:36:44;3.90;;;3.40;;
35028;SDS011;35394;54.282;10.070;2023-06-19T01:37:16;3.85;;;3.33;;
35028;SDS011;35394;54.282;10.070;2023-06-19T01:37:47;3.78;;;3.38;;
35028;SDS011;35394;54.282;10.070;2023-06-19T01:38:19;3.80;;;3.22;;
35028;SDS011;35394;54.282;10.070;2023-06-19T01:38:51;4.00;;;3.58;;
35028;SDS011;35394;54.282;10.070;2023-06-19T01:39:25;4.03;;;3.53;;
35028;SDS011;35394;54.282;10.070;2023-06-19T01:39:56;3.80;;;3.35;;
35028;SDS011;35394;54.282;10.070;2023-06-19T01:40:28;3.88;;;3.40;;
35028;SDS011;35394;54.282;10.070;2023-06-19T01:41:01;3.92;;;3.53;;
35028;SDS011;35394;54.282;10.070;2023-06-19T01:41:32;4.20;;;3.55;;
35028;SDS011;35394;54.282;10.070;2023-06-19T01:42:04;3.90;;;3.40;;
35028;SDS011;35394;54.282;10.070;2023-06-19T01:42:35;4.00;;;3.55;;
35028;SDS011;35394;54.282;10.070;2023-06-19T01:43:09;4.03;;;3.40;;
35028;SDS011;35394;54.282;10.070;2023-06-19T01:43:40;4.03;;;3.40;;
35028;SDS011;35394;54.282;10.070;2023-06-19T01:44:11;4.15;;;3.60;;
35028;SDS011;35394;54.282;10.070;2023-06-19T01:44:42;4.10;;;3.40;;
35028;SDS011;35394;54.282;10.070;2023-06-19T01:45:13;3.88;;;3.40;;
35028;SDS011;35394;54.282;10.070;2023-06-19T01:45:44;4.22;;;3.35;;
35028;SDS011;35394;54.282;10.070;2023-06-19T01:46:14;3.80;;;3.30;;
35028;SDS011;35394;54.282;10.070;2023-06-19T01:46:49;3.90;;;3.30;;
35028;SDS011;35394;54.282;10.070;2023-06-19T01:47:20;4.18;;;3.42;;
35028;SDS011;35394;54.282;10.070;2023-06-19T01:47:52;4.03;;;3.50;;
35028;SDS011;35394;54.282;10.070;2023-06-19T01:48:23;3.72;;;3.30;;
35028;SDS011;35394;54.282;10.070;2023-06-19T01:48:54;4.13;;;3.37;;
35028;SDS011;35394;54.282;10.070;2023-06-19T01:49:24;4.07;;;3.50;;
35028;SDS011;35394;54.282;10.070;2023-06-19T01:49:56;3.80;;;3.40;;
35028;SDS011;35394;54.282;10.070;2023-06-19T01:50:27;3.97;;;3.57;;
35028;SDS011;35394;54.282;10.070;2023-06-19T01:50:57;3.95;;;3.42;;
35028;SDS011;35394;54.282;10.070;2023-06-19T01:51:28;4.20;;;3.50;;
35028;SDS011;35394;54.282;10.070;2023-06-19T01:51:58;3.90;;;3.33;;
35028;SDS011;35394;54.282;10.070;2023-06-19T01:52:30;4.30;;;3.38;;
35028;SDS011;35394;54.282;10.070;2023-06-19T01:53:01;3.97;;;3.45;;
35028;SDS011;35394;54.282;10.070;2023-06-19T01:53:32;3.80;;;3.30;;
35028;SDS011;35394;54.282;10.070;2023-06-19T01:54:02;3.70;;;3.30;;
35028;SDS011;35394;54.282;10.070;2023-06-19T01:54:34;4.25;;;3.67;;
35028;SDS011;35394;54.282;10.070;2023-06-19T01:55:05;4.00;;;3.30;;
35028;SDS011;35394;54.282;10.070;2023-06-19T01:55:36;4.05;;;3.33;;
35028;SDS011;35394;54.282;10.070;2023-06-19T01:56:07;3.85;;;3.22;;
35028;SDS011;35394;54.282;10.070;2023-06-19T01:56:38;4.20;;;3.40;;
35028;SDS011;35394;54.282;10.070;2023-06-19T01:57:09;4.30;;;3.45;;
35028;SDS011;35394;54.282;10.070;2023-06-19T01:57:39;4.05;;;3.60;;
35028;SDS011;35394;54.282;10.070;2023-06-19T01:58:10;3.90;;;3.40;;
35028;SDS011;35394;54.282;10.070;2023-06-19T01:58:41;4.65;;;3.67;;
35028;SDS011;35394;54.282;10.070;2023-06-19T01:59:11;4.00;;;3.30;;
35028;SDS011;35394;54.282;10.070;2023-06-19T01:59:42;4.20;;;3.50;;
35028;SDS011;35394;54.282;10.070;2023-06-19T02:00:13;4.53;;;3.77;;
35028;SDS011;35394;54.282;10.070;2023-06-19T02:00:44;3.90;;;3.40;;
35028;SDS011;35394;54.282;10.070;2023-06-19T02:01:14;4.05;;;3.40;;
35028;SDS011;35394;54.282;10.070;2023-06-19T02:01:45;3.70;;;3.28;;
35028;SDS011;35394;54.282;10.070;2023-06-19T02:02:15;4.00;;;3.30;;
35028;SDS011;35394;54.282;10.070;2023-06-19T02:02:46;3.85;;;3.40;;
35028;SDS011;35394;54.282;10.070;2023-06-19T02:03:17;3.80;;;3.30;;
35028;SDS011;35394;54.282;10.070;2023-06-19T02:03:47;3.80;;;3.33;;
35028;SDS011;35394;54.282;10.070;2023-06-19T02:04:18;4.00;;;3.40;;
35028;SDS011;35394;54.282;10.070;2023-06-19T02:04:49;3.72;;;3.28;;
35028;SDS011;35394;54.282;10.070;2023-06-19T02:05:19;3.63;;;3.20;;
35028;SDS011;35394;54.282;10.070;2023-06-19T02:05:50;4.03;;;3.20;;
35028;SDS011;35394;54.282;10.070;2023-06-19T02:06:21;4.05;;;3.40;;
35028;SDS011;35394;54.282;10.070;2023-06-19T02:06:51;4.20;;;3.33;;
35028;SDS011;35394;54.282;10.070;2023-06-19T02:07:22;4.05;;;3.47;;
35028;SDS011;35394;54.282;10.070;2023-06-19T02:07:52;3.95;;;3.50;;
35028;SDS011;35394;54.282;10.070;2023-06-19T02:08:24;4.18;;;3.40;;
35028;SDS011;35394;54.282;10.070;2023-06-19T02:08:54;3.60;;;3.20;;
35028;SDS011;35394;54.282;10.070;2023-06-19T02:09:25;4.30;;;3.70;;
35028;SDS011;35394;54.282;10.070;2023-06-19T02:09:56;3.92;;;3.50;;
35028;SDS011;35394;54.282;10.070;2023-06-19T02:10:27;3.95;;;3.38;;
35028;SDS011;35394;54.282;10.070;2023-06-19T02:10:58;3.75;;;3.35;;
35028;SDS011;35394;54.282;10.070;2023-06-19T02:11:28;4.20;;;3.40;;
35028;SDS011;35394;54.282;10.070;2023-06-19T02:11:59;4.03;;;3.40;;
35028;SDS011;35394;54.282;10.070;2023-06-19T02:12:29;4.00;;;3.30;;
35028;SDS011;35394;54.282;10.070;2023-06-19T02:13:00;3.45;;;3.15;;
35028;SDS011;35394;54.282;10.070;2023-06-19T02:13:31;3.40;;;3.07;;
35028;SDS011;35394;54.282;10.070;2023-06-19T02:14:01;3.30;;;2.90;;
35028;SDS011;35394;54.282;10.070;2023-06-19T02:14:32;3.70;;;3.20;;
35028;SDS011;35394;54.282;10.070;2023-06-19T02:15:03;4.00;;;3.30;;
35028;SDS011;35394;54.282;10.070;2023-06-19T02:15:34;3.63;;;3.17;;
35028;SDS011;35394;54.282;10.070;2023-06-19T02:16:04;3.90;;;3.20;;
35028;SDS011;35394;54.282;10.070;2023-06-19T02:16:35;3.80;;;3.17;;
35028;SDS011;35394;54.282;10.070;2023-06-19T02:17:06;4.47;;;3.35;;
35028;SDS011;35394;54.282;10.070;2023-06-19T02:17:36;3.83;;;3.30;;
35028;SDS011;35394;54.282;10.070;2023-06-19T02:18:08;3.77;;;3.27;;
35028;SDS011;35394;54.282;10.070;2023-06-19T02:18:39;3.70;;;3.13;;
35028;SDS011;35394;54.282;10.070;2023-06-19T02:19:12;3.90;;;3.30;;
35028;SDS011;35394;54.282;10.070;2023-06-19T02:19:43;3.95;;;3.22;;
35028;SDS011;35394;54.282;10.070;2023-06-19T02:20:13;3.87;;;3.30;;
35028;SDS011;35394;54.282;10.070;2023-06-19T02:20:44;3.33;;;2.90;;
35028;SDS011;35394;54.282;10.070;2023-06-19T02:21:15;3.70;;;3.05;;
35028;SDS011;35394;54.282;10.070;2023-06-19T02:21:46;4.00;;;3.40;;
35028;SDS011;35394;54.282;10.070;2023-06-19T02:22:17;4.20;;;3.35;;
35028;SDS011;35394;54.282;10.070;2023-06-19T02:22:48;4.40;;;3.50;;
35028;SDS011;35394;54.282;10.070;2023-06-19T02:23:18;3.83;;;3.30;;
35028;SDS011;35394;54.282;10.070;2023-06-19T02:23:49;4.07;;;3.33;;
35028;SDS011;35394;54.282;10.070;2023-06-19T02:24:20;4.03;;;3.30;;
35028;SDS011;35394;54.282;10.070;2023-06-19T02:24:50;3.80;;;3.35;;
35028;SDS011;35394;54.282;10.070;2023-06-19T02:25:21;3.90;;;3.33;;
35028;SDS011;35394;54.282;10.070;2023-06-19T02:25:52;4.00;;;3.33;;
35028;SDS011;35394;54.282;10.070;2023-06-19T02:26:22;3.63;;;3.10;;
35028;SDS011;35394;54.282;10.070;2023-06-19T02:26:53;3.70;;;3.20;;
35028;SDS011;35394;54.282;10.070;2023-06-19T02:27:23;4.00;;;3.30;;
35028;SDS011;35394;54.282;10.070;2023-06-19T02:27:54;4.20;;;3.30;;
35028;SDS011;35394;54.282;10.070;2023-06-19T02:28:25;3.90;;;3.30;;
35028;SDS011;35394;54.282;10.070;2023-06-19T02:28:55;3.90;;;3.50;;
35028;SDS011;35394;54.282;10.070;2023-06-19T02:29:26;3.73;;;3.33;;
35028;SDS011;35394;54.282;10.070;2023-06-19T02:29:57;3.78;;;3.28;;
35028;SDS011;35394;54.282;10.070;2023-06-19T02:30:27;3.93;;;3.40;;
35028;SDS011;35394;54.282;10.070;2023-06-19T02:31:01;3.75;;;3.35;;
35028;SDS011;35394;54.282;10.070;2023-06-19T02:31:32;3.83;;;3.10;;
35028;SDS011;35394;54.282;10.070;2023-06-19T02:32:02;3.90;;;3.23;;
35028;SDS011;35394;54.282;10.070;2023-06-19T02:32:33;3.97;;;3.33;;
35028;SDS011;35394;54.282;10.070;2023-06-19T02:33:04;3.80;;;3.10;;
35028;SDS011;35394;54.282;10.070;2023-06-19T02:33:34;3.80;;;3.40;;
35028;SDS011;35394;54.282;10.070;2023-06-19T02:34:05;4.10;;;3.38;;
35028;SDS011;35394;54.282;10.070;2023-06-19T02:34:36;3.83;;;3.22;;
35028;SDS011;35394;54.282;10.070;2023-06-19T02:35:08;3.80;;;3.20;;
35028;SDS011;35394;54.282;10.070;2023-06-19T02:35:39;3.60;;;3.17;;
35028;SDS011;35394;54.282;10.070;2023-06-19T02:36:11;3.83;;;3.30;;
35028;SDS011;35394;54.282;10.070;2023-06-19T02:36:42;3.90;;;3.13;;
35028;SDS011;35394;54.282;10.070;2023-06-19T02:37:13;3.78;;;3.30;;
35028;SDS011;35394;54.282;10.070;2023-06-19T02:37:44;3.90;;;3.30;;
35028;SDS011;35394;54.282;10.070;2023-06-19T02:38:16;3.83;;;3.40;;
35028;SDS011;35394;54.282;10.070;2023-06-19T02:38:51;4.30;;;3.42;;
35028;SDS011;35394;54.282;10.070;2023-06-19T02:39:21;3.80;;;3.17;;
35028;SDS011;35394;54.282;10.070;2023-06-19T02:39:53;4.20;;;3.25;;
35028;SDS011;35394;54.282;10.070;2023-06-19T02:40:23;3.10;;;2.80;;
35028;SDS011;35394;54.282;10.070;2023-06-19T02:40:54;3.63;;;3.17;;
35028;SDS011;35394;54.282;10.070;2023-06-19T02:41:27;4.40;;;3.45;;
35028;SDS011;35394;54.282;10.070;2023-06-19T02:41:58;3.80;;;3.38;;
35028;SDS011;35394;54.282;10.070;2023-06-19T02:42:29;3.50;;;3.20;;
35028;SDS011;35394;54.282;10.070;2023-06-19T02:42:59;3.63;;;3.10;;
35028;SDS011;35394;54.282;10.070;2023-06-19T02:43:30;3.77;;;3.20;;
35028;SDS011;35394;54.282;10.070;2023-06-19T02:44:01;4.50;;;3.17;;
35028;SDS011;35394;54.282;10.070;2023-06-19T02:44:31;3.50;;;3.07;;
35028;SDS011;35394;54.282;10.070;2023-06-19T02:45:02;4.00;;;3.20;;
35028;SDS011;35394;54.282;10.070;2023-06-19T02:45:33;3.70;;;3.08;;
35028;SDS011;35394;54.282;10.070;2023-06-19T02:46:03;3.60;;;3.10;;
35028;SDS011;35394;54.282;10.070;2023-06-19T02:46:34;3.33;;;3.00;;
35028;SDS011;35394;54.282;10.070;2023-06-19T02:47:05;3.50;;;3.00;;
35028;SDS011;35394;54.282;10.070;2023-06-19T02:47:36;4.35;;;3.10;;
35028;SDS011;35394;54.282;10.070;2023-06-19T02:48:06;3.47;;;2.97;;
35028;SDS011;35394;54.282;10.070;2023-06-19T02:48:37;4.60;;;3.10;;
35028;SDS011;35394;54.282;10.070;2023-06-19T02:49:07;3.42;;;3.03;;
35028;SDS011;35394;54.282;10.070;2023-06-19T02:49:38;3.83;;;3.28;;
35028;SDS011;35394;54.282;10.070;2023-06-19T02:50:09;3.97;;;3.20;;
35028;SDS011;35394;54.282;10.070;2023-06-19T02:50:39;4.25;;;3.08;;
35028;SDS011;35394;54.282;10.070;2023-06-19T02:51:10;3.80;;;3.07;;
35028;SDS011;35394;54.282;10.070;2023-06-19T02:51:41;3.67;;;3.20;;
35028;SDS011;35394;54.282;10.070;2023-06-19T02:52:11;4.00;;;3.30;;
35028;SDS011;35394;54.282;10.070;2023-06-19T02:52:42;3.85;;;3.17;;
35028;SDS011;35394;54.282;10.070;2023-06-19T02:53:12;3.88;;;3.22;;
35028;SDS011;35394;54.282;10.070;2023-06-19T02:53:43;3.83;;;3.30;;
35028;SDS011;35394;54.282;10.070;2023-06-19T02:54:14;4.00;;;3.20;;
35028;SDS011;35394;54.282;10.070;2023-06-19T02:54:44;4.13;;;3.13;;
35028;SDS011;35394;54.282;10.070;2023-06-19T02:55:15;3.70;;;3.30;;
35028;SDS011;35394;54.282;10.070;2023-06-19T02:55:45;4.20;;;3.40;;
35028;SDS011;35394;54.282;10.070;2023-06-19T02:56:16;3.90;;;3.40;;
35028;SDS011;35394;54.282;10.070;2023-06-19T02:56:47;3.42;;;3.10;;
35028;SDS011;35394;54.282;10.070;2023-06-19T02:57:18;3.80;;;3.10;;
35028;SDS011;35394;54.282;10.070;2023-06-19T02:57:49;3.97;;;3.40;;
35028;SDS011;35394;54.282;10.070;2023-06-19T02:58:19;3.72;;;3.20;;
35028;SDS011;35394;54.282;10.070;2023-06-19T02:58:50;3.78;;;3.20;;
35028;SDS011;35394;54.282;10.070;2023-06-19T02:59:21;3.67;;;3.27;;
35028;SDS011;35394;54.282;10.070;2023-06-19T02:59:52;3.70;;;3.20;;
35028;SDS011;35394;54.282;10.070;2023-06-19T03:00:23;3.85;;;3.35;;
35028;SDS011;35394;54.282;10.070;2023-06-19T03:00:53;3.83;;;3.20;;
35028;SDS011;35394;54.282;10.070;2023-06-19T03:01:24;4.30;;;3.20;;
35028;SDS011;35394;54.282;10.070;2023-06-19T03:01:54;4.38;;;3.50;;
35028;SDS011;35394;54.282;10.070;2023-06-19T03:02:25;3.63;;;3.10;;
35028;SDS011;35394;54.282;10.070;2023-06-19T03:02:55;3.83;;;3.40;;
35028;SDS011;35394;54.282;10.070;2023-06-19T03:03:27;3.88;;;3.03;;
35028;SDS011;35394;54.282;10.070;2023-06-19T03:03:57;3.55;;;3.00;;
35028;SDS011;35394;54.282;10.070;2023-06-19T03:04:28;4.00;;;3.10;;
35028;SDS011;35394;54.282;10.070;2023-06-19T03:04:59;3.78;;;3.22;;
35028;SDS011;35394;54.282;10.070;2023-06-19T03:05:30;3.55;;;3.00;;
35028;SDS011;35394;54.282;10.070;2023-06-19T03:06:01;3.65;;;3.15;;
35028;SDS011;35394;54.282;10.070;2023-06-19T03:06:31;3.40;;;3.10;;
35028;SDS011;35394;54.282;10.070;2023-06-19T03:07:09;3.78;;;3.17;;
35028;SDS011;35394;54.282;10.070;2023-06-19T03:07:40;4.53;;;3.33;;
35028;SDS011;35394;54.282;10.070;2023-06-19T03:08:11;3.47;;;3.15;;
35028;SDS011;35394;54.282;10.070;2023-06-19T03:08:42;3.67;;;3.25;;
35028;SDS011;35394;54.282;10.070;2023-06-19T03:09:12;3.57;;;3.10;;